Vasiliy Bozhenko — URHP — position and weather

sailwx.info

Track history (hours):
 
Tides and Currents Weather Stations Pressure Air Temp Water Temp Dewpoint Dewpoint Depression Visibility Wind Speed Wind Dir Waves Ship Positions

Vasiliy Bozhenko

Last reported at 2014-Nov-21 15:24 UTC. Time now 2014-Nov-24 18:08 UTC.
Position N 40°55' E 028°52'.

Length 114 m; draft 2.8 m.

Type: Cargo ship. MMSI: 272085000.

Date/timePositionNaut miles runAvg speedWind from/ knotsBaromVisibWave heightAir tempDewpointWater temp
2014-Nov-21 15:24N 40°55' E 028°52'7 8.5
2014-Nov-21 14:33N 40°60' E 028°59'38 5.3
2014-Nov-21 07:23N 41°24' E 029°39'  
2014-Nov-15 12:31N 46°35' E 031°43'7 7.1
2014-Nov-15 11:33N 46°35' E 031°53'9 7.5
2014-Nov-15 10:20N 46°32' E 032°06'145 2.9
2014-Nov-13 07:33N 47°45' E 035°10'3 3.2
2014-Nov-13 06:34N 47°48' E 035°10'4 3.7
2014-Nov-13 05:34N 47°51' E 035°05'1 1.3
2014-Nov-13 04:34N 47°52' E 035°05'1 1.1
2014-Nov-13 03:29N 47°53' E 035°07'0 0.0
2014-Nov-13 02:33N 47°53' E 035°07'0 0.0
2014-Nov-13 01:24N 47°53' E 035°07'0 0.0
2014-Nov-13 00:30N 47°53' E 035°07'0 0.0
2014-Nov-12 23:30N 47°53' E 035°07'0 0.0
2014-Nov-12 22:29N 47°53' E 035°07'0 0.0
2014-Nov-12 21:28N 47°53' E 035°07'0 0.0
2014-Nov-12 20:23N 47°53' E 035°07'0 0.0
2014-Nov-12 19:31N 47°53' E 035°07'0 0.0
2014-Nov-12 18:31N 47°53' E 035°07'0 0.0
2014-Nov-12 17:31N 47°53' E 035°07'0 0.0
2014-Nov-12 16:31N 47°53' E 035°07'0 0.0
2014-Nov-12 15:33N 47°53' E 035°07'0 0.0
2014-Nov-12 14:33N 47°53' E 035°07'0 0.0
2014-Nov-12 13:33N 47°53' E 035°07'0 0.0
2014-Nov-12 12:33N 47°53' E 035°07'0 0.0
2014-Nov-12 11:33N 47°53' E 035°07'0 0.0
2014-Nov-12 10:33N 47°53' E 035°07'0 0.0
2014-Nov-12 09:33N 47°53' E 035°07'0 0.0
2014-Nov-12 08:27N 47°53' E 035°07'0 0.0
2014-Nov-12 07:33N 47°53' E 035°07'0 0.0
2014-Nov-12 06:33N 47°53' E 035°07'0 0.0
2014-Nov-12 05:33N 47°53' E 035°07'0 0.0
2014-Nov-12 04:32N 47°53' E 035°07'0 0.0
2014-Nov-12 03:32N 47°53' E 035°07'0 0.0
2014-Nov-12 02:31N 47°53' E 035°07'0 0.0
2014-Nov-12 01:31N 47°53' E 035°07'0 0.0
2014-Nov-12 00:31N 47°53' E 035°07'0 0.0
2014-Nov-11 23:33N 47°53' E 035°07'0 0.0
2014-Nov-11 22:33N 47°53' E 035°07'0 0.0
2014-Nov-11 21:29N 47°53' E 035°07'0 0.0
2014-Nov-11 20:30N 47°53' E 035°07'0 0.0
2014-Nov-11 19:30N 47°53' E 035°07'0 0.0
2014-Nov-11 18:31N 47°53' E 035°07'0 0.0
2014-Nov-11 17:31N 47°53' E 035°07'0 0.0
2014-Nov-11 16:31N 47°53' E 035°07'0 0.0
2014-Nov-11 15:25N 47°53' E 035°07'  
Track history (hours):
 
Tides and Currents Weather Stations Pressure Air Temp Water Temp Dewpoint Dewpoint Depression Visibility Wind Speed Wind Dir Waves Ship Positions

Vasiliy Bozhenko

Last reported at 2014-Nov-21 15:24 UTC. Time now 2014-Nov-24 18:08 UTC.
Position N 40°55' E 028°52'.

Length 114 m; draft 2.8 m.

Type: Cargo ship. MMSI: 272085000.

Date/timePositionNaut miles runAvg speedWind from/ knotsBaromVisibWave heightAir tempDewpointWater temp
2014-Nov-21 15:24N 40°55' E 028°52'7 8.5
2014-Nov-21 14:33N 40°60' E 028°59'38 5.3
2014-Nov-21 07:23N 41°24' E 029°39'  
2014-Nov-15 12:31N 46°35' E 031°43'7 7.1
2014-Nov-15 11:33N 46°35' E 031°53'9 7.5
2014-Nov-15 10:20N 46°32' E 032°06'145 2.9
2014-Nov-13 07:33N 47°45' E 035°10'3 3.2
2014-Nov-13 06:34N 47°48' E 035°10'4 3.7
2014-Nov-13 05:34N 47°51' E 035°05'1 1.3
2014-Nov-13 04:34N 47°52' E 035°05'1 1.1
2014-Nov-13 03:29N 47°53' E 035°07'0 0.0
2014-Nov-13 02:33N 47°53' E 035°07'0 0.0
2014-Nov-13 01:24N 47°53' E 035°07'0 0.0
2014-Nov-13 00:30N 47°53' E 035°07'0 0.0
2014-Nov-12 23:30N 47°53' E 035°07'0 0.0
2014-Nov-12 22:29N 47°53' E 035°07'0 0.0
2014-Nov-12 21:28N 47°53' E 035°07'0 0.0
2014-Nov-12 20:23N 47°53' E 035°07'0 0.0
2014-Nov-12 19:31N 47°53' E 035°07'0 0.0
2014-Nov-12 18:31N 47°53' E 035°07'0 0.0
2014-Nov-12 17:31N 47°53' E 035°07'0 0.0
2014-Nov-12 16:31N 47°53' E 035°07'0 0.0
2014-Nov-12 15:33N 47°53' E 035°07'0 0.0
2014-Nov-12 14:33N 47°53' E 035°07'0 0.0
2014-Nov-12 13:33N 47°53' E 035°07'0 0.0
2014-Nov-12 12:33N 47°53' E 035°07'0 0.0
2014-Nov-12 11:33N 47°53' E 035°07'0 0.0
2014-Nov-12 10:33N 47°53' E 035°07'0 0.0
2014-Nov-12 09:33N 47°53' E 035°07'0 0.0
2014-Nov-12 08:27N 47°53' E 035°07'0 0.0
2014-Nov-12 07:33N 47°53' E 035°07'0 0.0
2014-Nov-12 06:33N 47°53' E 035°07'0 0.0
2014-Nov-12 05:33N 47°53' E 035°07'0 0.0
2014-Nov-12 04:32N 47°53' E 035°07'0 0.0
2014-Nov-12 03:32N 47°53' E 035°07'0 0.0
2014-Nov-12 02:31N 47°53' E 035°07'0 0.0
2014-Nov-12 01:31N 47°53' E 035°07'0 0.0
2014-Nov-12 00:31N 47°53' E 035°07'0 0.0
2014-Nov-11 23:33N 47°53' E 035°07'0 0.0
2014-Nov-11 22:33N 47°53' E 035°07'0 0.0
2014-Nov-11 21:29N 47°53' E 035°07'0 0.0
2014-Nov-11 20:30N 47°53' E 035°07'0 0.0
2014-Nov-11 19:30N 47°53' E 035°07'0 0.0
2014-Nov-11 18:31N 47°53' E 035°07'0 0.0
2014-Nov-11 17:31N 47°53' E 035°07'0 0.0
2014-Nov-11 16:31N 47°53' E 035°07'0 0.0
2014-Nov-11 15:25N 47°53' E 035°07'  

Dump ship's entire track history